Flight Track Log - Related Links

Times and Time Zones

All times are in EDT time to prevent confusion due to time zone crossing. See the SWA430 flight status page for this flight to view local times or setup timezone preferences in your user account.

Time Position Orientation Groundspeed Altitude Reporting Facility
EDT Latitude Longitude Course Direction KTS MPH feet Rate Location/Type
Mon 07:50:05 PM 36.0761 -115.1683 271° West 147 169 3,400  Level Los Angeles Center
Mon 07:50:23 PM 36.0764 -115.1894 271° West 172 198 3,900 2,055 Climbing Los Angeles Center
Mon 07:51:18 PM 36.0764 -115.2586 270° West 216 249 5,900 2,118 Climbing Los Angeles Center
Mon 07:52:05 PM 36.1103 -115.2914 322° Northwest 255 293 7,500 2,037 Climbing Los Angeles Center
Mon 07:53:07 PM 36.1728 -115.2547 25° Northeast 277 319 9,600 2,032 Climbing Los Angeles Center
Mon 07:54:09 PM 36.1986 -115.1272 76° East 334 384 11,700 1,984 Climbing Los Angeles Center
Mon 07:55:11 PM 36.1950 -114.9972 92° East 377 434 13,700 1,887 Climbing Los Angeles Center
Mon 07:56:13 PM 36.1986 -114.8575 88° East 402 463 15,600 1,887 Climbing Los Angeles Center
Mon 07:57:15 PM 36.1992 -114.7072 90° East 433 498 17,600 2,226 Climbing Los Angeles Center
Mon 07:58:17 PM 36.1958 -114.5536 91° East 446 513 20,200 2,129 Climbing Los Angeles Center
Mon 07:59:19 PM 36.1936 -114.3939 91° East 460 529 22,000 1,707 Climbing Los Angeles Center
Mon 08:00:20 PM 36.1942 -114.2286 90° East 476 548 23,700 1,854 Climbing Los Angeles Center
Mon 08:01:22 PM 36.2183 -114.0261 82° East 494 568 25,800 1,632 Climbing Los Angeles Center
Mon 08:02:25 PM 36.2389 -113.8550 81° East 501 577 27,100 1,161 Climbing Los Angeles Center
Mon 08:03:26 PM 36.2589 -113.6781 82° East 514 592 28,200 1,073 Climbing Los Angeles Center
Mon 08:04:28 PM 36.2811 -113.4964 81° East 530 610 29,300 1,161 Climbing Los Angeles Center
Mon 08:05:30 PM 36.3019 -113.3144 82° East 533 613 30,600 1,306 Climbing Los Angeles Center
Mon 08:06:32 PM 36.3392 -113.1319 76° East 536 617 32,000 1,500 Climbing Los Angeles Center
Mon 08:07:34 PM 36.3875 -112.9222 74° East 531 611 33,700 1,122 Climbing Los Angeles Center
Mon 08:08:35 PM 36.4231 -112.7833 72° East 531 611 34,300 629 Climbing Los Angeles Center
Mon 08:09:38 PM 36.4761 -112.5719 73° East 535 616 35,000 336 Climbing Los Angeles Center
Mon 08:10:40 PM 36.5208 -112.3950 72° East 539 620 35,000  Level Los Angeles Center
Mon 08:11:41 PM 36.5653 -112.2178 73° East 540 621 35,000  Level Los Angeles Center
Mon 08:12:43 PM 36.6086 -112.0383 73° East 544 626 35,000  Level Los Angeles Center
Mon 08:12:59 PM 36.6261 -111.9672 73° East 543 625 35,000  Level Denver Center
Mon 08:14:00 PM 36.6711 -111.7883 73° East 544 626 35,000  Level Denver Center
Mon 08:15:02 PM 36.7125 -111.6117 74° East 538 619 35,000  Level Denver Center
Mon 08:16:04 PM 36.7553 -111.4339 73° East 537 618 35,000  Level Denver Center
Mon 08:17:05 PM 36.7981 -111.2561 73° East 537 618 35,000  Level Denver Center
Mon 08:18:07 PM 36.8408 -111.0789 73° East 536 617 35,000  Level Denver Center
Mon 08:19:09 PM 36.8869 -110.8694 75° East 530 610 35,000  Level Denver Center
Mon 08:20:10 PM 36.9283 -110.6925 74° East 533 613 35,000  Level Denver Center
Mon 08:21:12 PM 36.9689 -110.5147 74° East 533 613 35,000  Level Denver Center
Mon 08:22:14 PM 37.0100 -110.3367 74° East 535 616 35,000  Level Denver Center
Mon 08:23:15 PM 37.0511 -110.1489 75° East 537 618 35,000  Level Denver Center
Mon 08:24:17 PM 37.0903 -109.9756 74° East 540 621 35,000  Level Denver Center
Mon 08:25:18 PM 37.1353 -109.7750 74° East 536 617 35,000  Level Denver Center
Mon 08:26:20 PM 37.1733 -109.6036 74° East 534 615 35,000  Level Denver Center
Mon 08:27:22 PM 37.2164 -109.4067 75° East 525 604 35,000  Level Denver Center
Mon 08:28:23 PM 37.2533 -109.2350 75° East 530 610 35,000  Level Denver Center
Mon 08:29:25 PM 37.2969 -109.0356 75° East 529 609 35,000  Level Denver Center
Mon 08:30:27 PM 37.3328 -108.8664 75° East 524 603 35,000 146 Level Denver Center
Mon 08:31:28 PM 37.3697 -108.6936 75° East 532 612 35,300 732 Climbing Denver Center
Mon 08:32:30 PM 37.4128 -108.4894 75° East 540 621 36,500 829 Climbing Denver Center
Mon 08:33:31 PM 37.4486 -108.3181 75° East 533 613 37,000 244 Climbing Denver Center
Mon 08:34:33 PM 37.4903 -108.1142 75° East 535 616 37,000  Level Denver Center
Mon 08:35:35 PM 37.5256 -107.9383 76° East 538 619 37,000  Level Denver Center
Mon 08:36:36 PM 37.5600 -107.7672 76° East 534 615 37,000  Level Denver Center
Mon 08:37:38 PM 37.6025 -107.5667 75° East 530 610 37,000  Level Denver Center
Mon 08:38:39 PM 37.6369 -107.3897 76° East 537 618 37,000  Level Denver Center
Mon 08:39:41 PM 37.6769 -107.1886 76° East 531 611 37,000  Level Denver Center
Mon 08:40:43 PM 37.7100 -107.0192 76° East 522 601 37,000  Level Denver Center
Mon 08:41:44 PM 37.7433 -106.8467 76° East 526 605 37,000  Level Denver Center
Mon 08:42:46 PM 37.7819 -106.6439 76° East 532 612 37,000  Level Denver Center
Mon 08:43:47 PM 37.8150 -106.4708 76° East 529 609 37,000  Level Denver Center
Mon 08:44:49 PM 37.8519 -106.2806 76° East 515 593 37,000  Level Denver Center
Mon 08:45:50 PM 37.8842 -106.1103 76° East 522 601 37,000  Level Denver Center
Mon 08:46:52 PM 37.9203 -105.9092 77° East 526 605 37,000  Level Denver Center
Mon 08:47:54 PM 37.9533 -105.7378 76° East 523 602 37,000  Level Denver Center
Mon 08:48:55 PM 37.9906 -105.5306 77° East 538 619 37,000  Level Denver Center
Mon 08:49:57 PM 38.0222 -105.3519 77° East 541 623 37,000  Level Denver Center
Mon 08:50:58 PM 38.0536 -105.1808 77° East 524 603 37,000  Level Denver Center
Mon 08:52:00 PM 38.0892 -104.9797 77° East 520 598 37,000  Level Denver Center
Mon 08:53:01 PM 38.1208 -104.8028 77° East 530 610 37,000  Level Denver Center
Mon 08:54:03 PM 38.1514 -104.6225 78° East 541 623 37,000  Level Denver Center
Mon 08:55:16 PM 38.1864 -104.4164 78° East 533 613 37,000  Level Denver Center
Mon 08:56:30 PM 38.2264 -104.1781 78° East 536 617 37,000  Level Denver Center
Mon 08:57:32 PM 38.2631 -103.9681 77° East 540 621 37,000  Level Denver Center
Mon 08:58:33 PM 38.2978 -103.7553 78° East 546 628 37,000  Level Denver Center
Mon 08:59:35 PM 38.3272 -103.5733 78° East 545 627 37,000  Level Denver Center
Mon 09:00:36 PM 38.3572 -103.3867 78° East 544 626 37,000  Level Denver Center
Mon 09:01:38 PM 38.3914 -103.1764 78° East 543 625 37,000  Level Denver Center
Mon 09:02:39 PM 38.4197 -102.9994 78° East 534 615 37,000  Level Denver Center
Mon 09:03:41 PM 38.4464 -102.8222 79° East 532 612 37,000  Level Denver Center
Mon 09:04:42 PM 38.4786 -102.6172 79° East 526 605 37,000  Level Denver Center
Mon 09:05:44 PM 38.5050 -102.4439 79° East 520 598 37,000  Level Denver Center
Mon 09:06:45 PM 38.5367 -102.2397 79° East 525 604 37,000  Level Denver Center
Mon 09:07:47 PM 38.5631 -102.0656 79° East 522 601 37,000  Level Denver Center
Mon 09:08:48 PM 38.5892 -101.8906 79° East 523 602 37,000  Level Denver Center
Mon 09:09:49 PM 38.6194 -101.6844 79° East 526 605 37,000  Level Denver Center
Mon 09:10:51 PM 38.6447 -101.5067 80° East 528 608 37,000  Level Denver Center
Mon 09:11:52 PM 38.6747 -101.3003 79° East 527 606 37,000  Level Denver Center
Mon 09:12:54 PM 38.7000 -101.1225 80° East 528 608 37,000  Level Denver Center
Mon 09:13:55 PM 38.7247 -100.9456 80° East 527 606 37,000  Level Denver Center
Mon 09:14:57 PM 38.7531 -100.7394 80° East 525 604 37,000  Level Denver Center
Mon 09:15:58 PM 38.7772 -100.5658 80° East 520 598 37,000  Level Denver Center
Mon 09:17:00 PM 38.8014 -100.3914 80° East 518 596 37,000  Level Denver Center
Mon 09:18:01 PM 38.8283 -100.1867 80° East 519 597 37,000  Level Denver Center
Mon 09:19:02 PM 38.8517 -100.0114 80° East 519 597 37,000  Level Denver Center
Mon 09:20:04 PM 38.8783 -99.8072 80° East 519 597 37,000  Level Denver Center
Mon 09:21:05 PM 38.8997 -99.6294 81° East 525 604 37,000  Level Denver Center
Mon 09:22:07 PM 38.9222 -99.4533 81° East 524 603 37,000  Level Denver Center
Mon 09:23:20 PM 38.9478 -99.2478 81° East 521 600 37,000  Level Denver Center
Mon 09:24:22 PM 38.9778 -99.0094 81° East 527 606 37,000  Level Denver Center
Mon 09:25:11 PM 38.9942 -98.8739 81° East 531 611 37,000  Level Kansas City Center
Mon 09:26:15 PM 39.0164 -98.6839 81° East 536 617 37,000  Level Kansas City Center
Mon 09:27:16 PM 39.0397 -98.4936 81° East 538 619 37,000  Level Kansas City Center
Mon 09:28:17 PM 39.0619 -98.3022 81° East 540 621 37,000  Level Kansas City Center
Mon 09:29:19 PM 39.0822 -98.1106 82° East 539 620 37,000  Level Kansas City Center
Mon 09:30:20 PM 39.1047 -97.9194 81° East 539 620 37,000  Level Kansas City Center
Mon 09:31:21 PM 39.1303 -97.6919 82° East 533 613 37,000  Level Kansas City Center
Mon 09:32:22 PM 39.1503 -97.5117 82° East 531 611 37,000  Level Kansas City Center
Mon 09:33:26 PM 39.1700 -97.3317 82° East 529 609 37,000  Level Kansas City Center
Mon 09:34:27 PM 39.1925 -97.1250 82° East 522 601 37,000  Level Kansas City Center
Mon 09:35:26 PM 39.2108 -96.9458 82° East 525 604 37,000  Level Kansas City Center
Mon 09:36:30 PM 39.2317 -96.7364 83° East 527 606 37,000  Level Kansas City Center
Mon 09:37:32 PM 39.2500 -96.5558 82° East 529 609 37,000  Level Kansas City Center
Mon 09:38:32 PM 39.2667 -96.3764 83° East 532 612 37,000  Level Kansas City Center
Mon 09:39:34 PM 39.2856 -96.1875 83° East 531 611 37,000  Level Kansas City Center
Mon 09:40:34 PM 39.3056 -95.9803 83° East 534 615 37,000  Level Kansas City Center
Mon 09:41:36 PM 39.3253 -95.7675 83° East 534 615 37,000  Level Kansas City Center
Mon 09:42:39 PM 39.3425 -95.5856 83° East 532 612 37,000  Level Kansas City Center
Mon 09:43:39 PM 39.3600 -95.3808 84° East 533 613 37,000  Level Kansas City Center
Mon 09:44:42 PM 39.3778 -95.1911 83° East 532 612 37,000  Level Kansas City Center
Mon 09:45:42 PM 39.3944 -95.0000 84° East 531 611 37,000  Level Kansas City Center
Mon 09:46:43 PM 39.4100 -94.8164 84° East 533 613 37,000  Level Kansas City Center
Mon 09:47:45 PM 39.4278 -94.6019 84° East 536 617 37,000  Level Kansas City Center
Mon 09:48:46 PM 39.4431 -94.4181 84° East 537 618 37,000  Level Kansas City Center
Mon 09:49:47 PM 39.4578 -94.2350 84° East 535 616 37,000  Level Kansas City Center
Mon 09:50:51 PM 39.4742 -94.0217 84° East 534 615 37,000  Level Kansas City Center
Mon 09:51:51 PM 39.4881 -93.8394 84° East 533 613 37,000  Level Kansas City Center
Mon 09:52:53 PM 39.5028 -93.6597 84° East 536 617 37,000  Level Kansas City Center
Mon 09:53:54 PM 39.5194 -93.4333 84° East 532 612 37,000  Level Kansas City Center
Mon 09:54:55 PM 39.5328 -93.2489 85° East 527 606 37,000  Level Kansas City Center
Mon 09:55:56 PM 39.5467 -93.0611 84° East 528 608 37,000  Level Kansas City Center
Mon 09:56:56 PM 39.5583 -92.8706 85° East 534 615 37,000  Level Kansas City Center
Mon 09:58:00 PM 39.5711 -92.6825 85° East 534 615 37,000  Level Kansas City Center
Mon 09:59:00 PM 39.5822 -92.4972 85° East 528 608 37,000  Level Kansas City Center
Mon 10:00:01 PM 39.5969 -92.2711 85° East 529 609 37,000  Level Kansas City Center
Mon 10:01:02 PM 39.6083 -92.0836 85° East 529 609 37,000  Level Kansas City Center
Mon 10:02:05 PM 39.6197 -91.8953 85° East 530 610 37,000  Level Kansas City Center
Mon 10:03:06 PM 39.6308 -91.7067 86° East 530 610 37,000  Level Kansas City Center
Mon 10:04:07 PM 39.6417 -91.5186 86° East 530 610 37,000  Level Kansas City Center
Mon 10:05:07 PM 39.6514 -91.3306 86° East 529 609 37,000  Level Kansas City Center
Mon 10:06:08 PM 39.6622 -91.1369 86° East 528 608 37,000  Level Kansas City Center
Mon 10:07:12 PM 39.6728 -90.9461 86° East 528 608 37,000  Level Kansas City Center
Mon 10:08:12 PM 39.6831 -90.7233 86° East 520 598 37,000  Level Kansas City Center
Mon 10:09:13 PM 39.6919 -90.5342 86° East 523 602 37,000  Level Kansas City Center
Mon 10:10:14 PM 39.7017 -90.3456 86° East 523 602 37,000  Level Kansas City Center
Mon 10:11:14 PM 39.7094 -90.1589 87° East 521 600 37,000  Level Kansas City Center
Mon 10:12:15 PM 39.7178 -89.9722 87° East 519 597 37,000  Level Kansas City Center
Mon 10:13:19 PM 39.7244 -89.7869 87° East 519 597 37,000  Level Kansas City Center
Mon 10:14:20 PM 39.7322 -89.5997 87° East 521 600 37,000  Level Kansas City Center
Mon 10:15:21 PM 39.7400 -89.4142 87° East 519 597 37,000  Level Kansas City Center
Mon 10:16:23 PM 39.7456 -89.2294 88° East 516 594 37,000  Level Kansas City Center
Mon 10:17:22 PM 39.7519 -89.0458 87° East 513 590 37,000  Level Kansas City Center
Mon 10:18:25 PM 39.7594 -88.8264 87° East 510 587 37,000  Level Kansas City Center
Mon 10:19:26 PM 39.7658 -88.6442 87° East 508 585 37,000  Level Kansas City Center
Mon 10:20:27 PM 39.7714 -88.4619 88° East 506 582 37,000  Level Kansas City Center
Mon 10:21:28 PM 39.7794 -88.2756 87° East 513 590 37,000  Level Kansas City Center
Mon 10:22:35 PM 39.7933 -88.0783 85° East 507 583 37,000  Level Indianapolis Center
Mon 10:23:36 PM 39.8111 -87.8967 83° East 506 582 37,000  Level Indianapolis Center
Mon 10:24:37 PM 39.8278 -87.7131 83° East 506 582 37,000  Level Indianapolis Center
Mon 10:25:38 PM 39.8444 -87.5300 83° East 507 583 37,000  Level Indianapolis Center
Mon 10:26:39 PM 39.8619 -87.3461 83° East 509 586 37,000  Level Indianapolis Center
Mon 10:27:40 PM 39.8775 -87.1614 84° East 509 586 37,000  Level Indianapolis Center
Mon 10:28:41 PM 39.8942 -86.9753 83° East 513 590 37,000  Level Indianapolis Center
Mon 10:29:42 PM 39.9106 -86.7906 83° East 513 590 37,000  Level Indianapolis Center
Mon 10:30:18 PM 39.9236 -86.6428 83° East 511 588 37,000  Level Indianapolis Center
Mon 10:31:19 PM 39.9392 -86.4569 84° East 513 590 37,000  Level Indianapolis Center
Mon 10:32:23 PM 39.9536 -86.2814 84° East 512 589 37,000  Level Chicago Center
Mon 10:33:21 PM 39.9694 -86.0869 84° East 511 588 37,000  Level Indianapolis Center
Mon 10:35:23 PM 39.9981 -85.7253 84° East 508 585 37,000  Level Indianapolis Center
Mon 10:36:24 PM 40.0111 -85.5403 85° East 508 585 37,000  Level Indianapolis Center
Mon 10:37:25 PM 40.0253 -85.3542 84° East 511 588 37,000  Level Indianapolis Center
Mon 10:38:26 PM 40.0389 -85.1681 84° East 511 588 37,000  Level Indianapolis Center
Mon 10:39:27 PM 40.0531 -84.9842 84° East 507 583 37,000  Level Indianapolis Center
Mon 10:40:29 PM 40.0656 -84.7967 85° East 513 590 37,000  Level Indianapolis Center
Mon 10:41:30 PM 40.0783 -84.6114 85° East 510 587 37,000  Level Indianapolis Center
Mon 10:42:31 PM 40.0906 -84.4261 85° East 508 585 37,000  Level Indianapolis Center
Mon 10:43:32 PM 40.1011 -84.2411 86° East 506 582 37,000  Level Indianapolis Center
Mon 10:44:33 PM 40.1136 -84.0561 85° East 504 580 37,000  Level Indianapolis Center
Mon 10:45:34 PM 40.1247 -83.8706 85° East 505 581 37,000  Level Indianapolis Center
Mon 10:46:35 PM 40.1361 -83.6831 85° East 509 586 37,000  Level Indianapolis Center
Mon 10:47:36 PM 40.1464 -83.4956 86° East 507 583 37,000  Level Indianapolis Center
Mon 10:48:37 PM 40.1567 -83.3081 86° East 507 583 37,000  Level Indianapolis Center
Mon 10:50:39 PM 40.1767 -82.9361 86° East 506 582 37,000  Level Indianapolis Center
Mon 10:51:41 PM 40.1864 -82.7514 86° East 504 580 37,000  Level Indianapolis Center
Mon 10:52:42 PM 40.1953 -82.5669 86° East 503 579 37,000  Level Indianapolis Center
Mon 10:53:43 PM 40.2042 -82.3839 86° East 500 575 37,000  Level Indianapolis Center
Mon 10:54:44 PM 40.2131 -82.2008 86° East 500 575 37,000  Level Indianapolis Center
Mon 10:55:45 PM 40.2217 -81.9856 87° East 504 580 37,000  Level Indianapolis Center
Mon 10:56:46 PM 40.2300 -81.8006 87° East 505 581 37,000  Level Indianapolis Center
Mon 10:57:48 PM 40.2364 -81.6308 87° East 495 570 37,000  Level Indianapolis Center
Mon 10:58:27 PM 40.2425 -81.5186 86° East 492 566 37,000  Level Cleveland Center
Mon 10:59:26 PM 40.2628 -81.3422 81° East 492 566 37,000  Level Cleveland Center
Mon 11:00:27 PM 40.3219 -81.1850 64° Northeast 480 552 37,000  Level Cleveland Center
Mon 11:01:26 PM 40.3872 -81.0328 61° Northeast 473 544 37,000  Level Cleveland Center
Mon 11:02:26 PM 40.4544 -80.8833 59° Northeast 473 544 37,000  Level Cleveland Center
Mon 11:03:27 PM 40.5153 -80.7278 63° Northeast 473 544 37,000  Level Cleveland Center
Mon 11:04:27 PM 40.5175 -80.5503 89° East 465 535 37,000  Level Cleveland Center
Mon 11:05:26 PM 40.4986 -80.3728 98° East 465 535 37,000  Level Cleveland Center
Mon 11:06:26 PM 40.4750 -80.1847 99° East 472 543 37,000  Level Cleveland Center
Mon 11:07:27 PM 40.4597 -80.0100 96° East 478 550 37,000  Level Cleveland Center
Mon 11:08:26 PM 40.4483 -79.8275 95° East 488 562 37,000  Level Cleveland Center
Mon 11:09:26 PM 40.4367 -79.6528 95° East 488 562 37,000  Level Cleveland Center
Mon 11:10:26 PM 40.4225 -79.4786 96° East 488 562 37,000  Level Cleveland Center
Mon 11:11:26 PM 40.4103 -79.3014 95° East 483 556 37,000  Level Cleveland Center
Mon 11:12:26 PM 40.3939 -79.1492 98° East 475 547 37,000  Level Cleveland Center
Mon 11:13:26 PM 40.3811 -78.9750 95° East 475 547 37,000  Level Cleveland Center
Mon 11:14:26 PM 40.3658 -78.7983 96° East 481 554 37,000  Level Cleveland Center
Mon 11:15:26 PM 40.3547 -78.6242 95° East 481 554 37,000  Level Cleveland Center
Mon 11:17:10 PM 40.3253 -78.3075 97° East 487 560 37,000  Level New York Center
Mon 11:18:10 PM 40.3114 -78.1292 96° East 487 560 37,000  Level New York Center
Mon 11:19:11 PM 40.2969 -77.9586 96° East 487 560 37,000  Level New York Center
Mon 11:20:12 PM 40.2839 -77.7967 96° East 487 560 37,000 -1,707 Level New York Center
Mon 11:22:00 PM 40.3002 -77.4697 90° East  Level FlightAware Approximate
Mon 11:23:10 PM 40.2297 -77.2472 90° East 487 560 30,200  Level New York Center
Mon 11:24:12 PM 40.2142 -77.0719 97° East 487 560 27,700 -2,311 Descending New York Center
Mon 11:25:12 PM 40.1978 -76.9072 97° East 482 555 25,500 -2,594 Descending New York Center
Mon 11:26:47 PM 40.1761 -76.6450 96° East 433 498 21,000 -2,638 Descending FAA TRACON SMA TRACON (SMA)
Mon 11:27:08 PM 40.1739 -76.5961 93° East 426 490 20,400 -1,650 Descending FAA TRACON SMA TRACON (SMA)
Mon 11:27:27 PM 40.1669 -76.5497 101° East 414 476 19,900 -1,692 Descending FAA TRACON SMA TRACON (SMA)
Mon 11:27:47 PM 40.1619 -76.5064 99° East 388 447 19,300 -1,500 Descending FAA TRACON SMA TRACON (SMA)
Mon 11:28:07 PM 40.1581 -76.4653 97° East 383 441 18,900 -1,650 Descending FAA TRACON SMA TRACON (SMA)
Mon 11:28:27 PM 40.1528 -76.4136 98° East 374 430 18,200 -1,800 Descending FAA TRACON SMA TRACON (SMA)
Mon 11:28:47 PM 40.1478 -76.3722 99° East 375 432 17,700 -1,050 Descending FAA TRACON SMA TRACON (SMA)
Mon 11:29:07 PM 40.1431 -76.3314 99° East 373 429 17,500 -1,350 Descending FAA TRACON SMA TRACON (SMA)
Mon 11:29:27 PM 40.1378 -76.2797 98° East 372 428 16,800 -1,800 Descending FAA TRACON SMA TRACON (SMA)
Mon 11:29:47 PM 40.1336 -76.2397 98° East 369 425 16,300 -1,610 Descending FAA TRACON SMA TRACON (SMA)
Mon 11:30:08 PM 40.1294 -76.1992 98° East 368 423 15,700 -1,950 Descending FAA TRACON SMA TRACON (SMA)
Mon 11:30:27 PM 40.1247 -76.1506 97° East 367 422 15,000 -1,950 Descending FAA TRACON SMA TRACON (SMA)
Mon 11:30:48 PM 40.1197 -76.1083 99° East 365 420 14,400 -1,650 Descending FAA TRACON SMA TRACON (SMA)
Mon 11:31:07 PM 40.1156 -76.0683 98° East 364 419 13,900 -1,800 Descending FAA TRACON SMA TRACON (SMA)
Mon 11:31:28 PM 40.1100 -76.0192 98° East 359 413 13,200 -1,500 Descending FAA TRACON SMA TRACON (SMA)
Mon 11:31:47 PM 40.0914 -75.9892 129° Southeast 369 425 12,900 -1,077 Descending FAA TRACON SMA TRACON (SMA)
Mon 11:32:07 PM 40.0644 -75.9753 158° South 343 395 12,500 -1,050 Descending FAA TRACON SMA TRACON (SMA)
Mon 11:32:27 PM 40.0311 -75.9647 166° South 322 371 12,200 -900 Descending FAA TRACON SMA TRACON (SMA)
Mon 11:32:47 PM 40.0053 -75.9567 167° South 320 368 11,900 -1,200 Descending FAA TRACON SMA TRACON (SMA)
Mon 11:33:07 PM 39.9725 -75.9456 165° South 312 359 11,400 -1,200 Descending FAA TRACON SMA TRACON (SMA)
Mon 11:33:27 PM 39.9475 -75.9372 166° South 307 353 11,100 -1,200 Descending FAA TRACON SMA TRACON (SMA)
Mon 11:33:47 PM 39.9225 -75.9283 165° South 305 351 10,600 -1,500 Descending FAA TRACON SMA TRACON (SMA)
Mon 11:34:07 PM 39.8983 -75.9200 165° South 300 345 10,100 -1,500 Descending FAA TRACON SMA TRACON (SMA)
Mon 11:34:27 PM 39.8689 -75.9100 165° South 292 336 9,600 -1,200 Descending FAA TRACON SMA TRACON (SMA)
Mon 11:34:47 PM 39.8453 -75.9019 165° South 285 328 9,300 -1,171 Descending FAA TRACON SMA TRACON (SMA)
Mon 11:35:08 PM 39.8169 -75.8922 165° South 280 322 8,800 -1,650 Descending FAA TRACON SMA TRACON (SMA)
Mon 11:35:27 PM 39.7978 -75.8750 145° Southeast 293 337 8,200 -1,500 Descending FAA TRACON SMA TRACON (SMA)
Mon 11:35:48 PM 39.7894 -75.8461 111° Southeast 278 320 7,800 -1,500 Descending FAA TRACON SMA TRACON (SMA)
Mon 11:36:07 PM 39.7797 -75.8086 109° East 291 335 7,200 -1,500 Descending FAA TRACON SMA TRACON (SMA)
Mon 11:36:28 PM 39.7733 -75.7775 105° East 287 330 6,800 -1,050 Descending FAA TRACON SMA TRACON (SMA)
Mon 11:36:47 PM 39.7681 -75.7475 103° East 280 322 6,500 -1,050 Descending FAA TRACON SMA TRACON (SMA)
Mon 11:37:08 PM 39.7714 -75.7089 84° East 284 327 6,100 -1,200 Descending FAA TRACON SMA TRACON (SMA)
Mon 11:37:27 PM 39.7767 -75.6811 76° East 280 322 5,700 -1,231 Descending FAA TRACON SMA TRACON (SMA)
Mon 11:37:47 PM 39.7836 -75.6497 74° East 282 325 5,300 -1,200 Descending FAA TRACON SMA TRACON (SMA)
Mon 11:38:07 PM 39.7931 -75.6117 72° East 279 321 4,900 -900 Descending FAA TRACON SMA TRACON (SMA)
Mon 11:38:27 PM 39.7992 -75.5836 74° East 267 307 4,700 -750 Descending FAA TRACON SMA TRACON (SMA)
Mon 11:38:47 PM 39.8036 -75.5581 77° East 238 274 4,400 -1,050 Descending FAA TRACON SMA TRACON (SMA)
Mon 11:39:07 PM 39.8094 -75.5286 76° East 221 254 4,000 -1,024 Descending FAA TRACON SMA TRACON (SMA)
Mon 11:39:28 PM 39.8139 -75.5078 74° East 214 246 3,700 -900 Descending FAA TRACON SMA TRACON (SMA)
Mon 11:39:47 PM 39.8197 -75.4853 71° East 209 241 3,400 -1,200 Descending FAA TRACON SMA TRACON (SMA)
Mon 11:40:08 PM 39.8247 -75.4586 76° East 197 227 2,900 -1,200 Descending FAA TRACON SMA TRACON (SMA)
Mon 11:40:27 PM 39.8275 -75.4392 79° East 184 212 2,600 -750 Descending FAA TRACON SMA TRACON (SMA)
Mon 11:40:48 PM 39.8311 -75.4203 76° East 177 204 2,400 -900 Descending FAA TRACON SMA TRACON (SMA)
Mon 11:41:07 PM 39.8361 -75.3975 74° East 176 203 2,000 -1,050 Descending FAA TRACON SMA TRACON (SMA)
Mon 11:41:28 PM 39.8408 -75.3786 72° East 174 200 1,700 -900 Descending FAA TRACON SMA TRACON (SMA)
Mon 11:41:47 PM 39.8436 -75.3622 78° East 148 170 1,400 -900 Descending FAA TRACON SMA TRACON (SMA)
Mon 11:42:08 PM 39.8472 -75.3433 76° East 141 162 1,100 -750 Descending FAA TRACON SMA TRACON (SMA)
Mon 11:42:27 PM 39.8503 -75.3278 76° East 143 165 900 -615 Descending FAA TRACON SMA TRACON (SMA)
Mon 11:42:47 PM 39.8533 -75.3119 76° East 145 167 700 -750 Descending FAA TRACON SMA TRACON (SMA)
Mon 11:43:07 PM 39.8572 -75.2925 75° East 144 166 400 -900 Descending FAA TRACON SMA TRACON (SMA)
Mon 11:43:27 PM 39.8603 -75.2775 75° East 141 162 100 -300 Descending FAA TRACON SMA TRACON (SMA)
Mon 11:44:07 PM 39.8603 -75.2775 180° South 141 162 100  Level FAA TRACON SMA TRACON (SMA)

Login

Don't have an account? Register now (free) for customized features, flight alerts, and more!